createdAt,value
2023-04-22T00:01:39.534Z,20.33
2023-04-22T00:07:15.414Z,16.42
2023-04-22T00:09:42.426Z,17.15
2023-04-22T00:12:13.760Z,19.92
2023-04-22T00:14:40.982Z,18.20
2023-04-22T00:17:07.704Z,17.83
2023-04-22T00:19:35.115Z,16.17
2023-04-22T00:22:02.063Z,18.08
2023-04-22T00:24:29.297Z,17.10
2023-04-22T00:26:56.064Z,20.00
2023-04-22T00:29:25.493Z,16.70
2023-04-22T00:31:52.300Z,18.23
2023-04-22T00:34:19.657Z,18.25
2023-04-22T00:36:46.528Z,19.35
2023-04-22T00:39:14.041Z,22.42
2023-04-22T00:41:40.741Z,26.30
2023-04-22T00:44:11.309Z,23.73
2023-04-22T00:46:41.776Z,21.13
2023-04-22T00:49:08.462Z,23.80
2023-04-22T00:51:38.999Z,22.10
2023-04-22T00:54:06.508Z,22.67
2023-04-22T00:56:36.050Z,24.30
2023-04-22T00:59:03.097Z,22.23
2023-04-22T01:01:30.530Z,21.52
2023-04-22T01:03:59.017Z,20.70
2023-04-22T01:06:28.157Z,22.33
2023-04-22T01:08:54.866Z,19.10
2023-04-22T01:11:21.666Z,21.95
2023-04-22T01:13:48.469Z,20.02
2023-04-22T01:16:15.524Z,22.17
2023-04-22T01:18:42.364Z,23.70
2023-04-22T01:21:09.110Z,25.77
2023-04-22T01:23:38.585Z,28.55
2023-04-22T01:26:06.058Z,31.83
2023-04-22T01:28:33.010Z,29.42
2023-04-22T01:30:59.766Z,27.13
2023-04-22T01:33:26.750Z,26.95
2023-04-22T01:35:53.757Z,28.85
2023-04-22T01:38:20.398Z,33.40
2023-04-22T01:40:46.964Z,25.50
2023-04-22T01:43:13.612Z,26.05
2023-04-22T01:45:40.512Z,30.48
2023-04-22T01:48:07.474Z,30.83
2023-04-22T01:50:34.215Z,30.55
2023-04-22T01:53:01.368Z,30.30
2023-04-22T01:55:27.988Z,33.88
2023-04-22T01:57:54.710Z,33.00
2023-04-22T02:00:21.307Z,30.17
2023-04-22T02:02:48.349Z,27.90
2023-04-22T02:05:15.942Z,30.95
2023-04-22T02:07:45.788Z,35.53
2023-04-22T02:10:16.076Z,30.15
2023-04-22T02:12:43.040Z,32.33
2023-04-22T02:15:10.301Z,31.05
2023-04-22T02:17:37.612Z,35.58
2023-04-22T02:20:09.180Z,37.75
2023-04-22T02:22:36.781Z,38.20
2023-04-22T02:25:07.058Z,31.95
2023-04-22T02:27:33.889Z,32.55
2023-04-22T02:30:00.444Z,31.63
2023-04-22T02:32:28.583Z,31.55
2023-04-22T02:34:55.634Z,31.52
2023-04-22T02:37:23.035Z,26.58
2023-04-22T02:39:49.855Z,33.60
2023-04-22T02:42:17.420Z,28.20
2023-04-22T02:44:44.063Z,31.85
2023-04-22T02:47:10.691Z,32.05
2023-04-22T02:49:37.772Z,34.20
2023-04-22T02:52:05.068Z,30.50
2023-04-22T02:54:31.597Z,30.30
2023-04-22T02:56:59.838Z,32.28
2023-04-22T02:59:26.827Z,32.47
2023-04-22T03:01:54.110Z,35.05
2023-04-22T03:04:35.840Z,38.20
2023-04-22T03:07:03.184Z,32.50
2023-04-22T03:09:29.711Z,29.55
2023-04-22T03:11:56.626Z,30.33
2023-04-22T03:14:23.451Z,32.95
2023-04-22T03:16:50.285Z,32.05
2023-04-22T03:19:17.704Z,38.92
2023-04-22T03:21:44.375Z,37.53
2023-04-22T03:24:11.531Z,37.63
2023-04-22T03:26:44.681Z,36.30
2023-04-22T03:29:11.657Z,47.10
2023-04-22T03:31:38.356Z,49.42
2023-04-22T03:34:06.241Z,45.67
2023-04-22T03:36:32.975Z,45.08
2023-04-22T03:38:59.586Z,42.83
2023-04-22T03:41:27.217Z,42.70
2023-04-22T03:43:54.005Z,47.92
2023-04-22T03:46:21.206Z,47.20
2023-04-22T03:48:59.555Z,49.35
2023-04-22T03:51:29.196Z,46.42
2023-04-22T03:53:57.791Z,48.70
2023-04-22T03:56:26.787Z,43.08
2023-04-22T03:58:57.113Z,41.13
2023-04-22T04:01:24.763Z,46.53
2023-04-22T04:03:55.696Z,38.80
2023-04-22T04:06:26.484Z,45.67
2023-04-22T04:08:53.103Z,44.30
2023-04-22T04:11:19.796Z,42.97
2023-04-22T04:13:47.172Z,45.63
2023-04-22T04:16:18.867Z,43.33
2023-04-22T04:18:51.428Z,43.78
2023-04-22T04:21:20.203Z,45.33
2023-04-22T04:23:50.533Z,47.53
2023-04-22T04:26:21.360Z,45.35
2023-04-22T04:28:52.698Z,45.42
2023-04-22T04:31:19.803Z,43.92
2023-04-22T04:33:49.491Z,44.33
2023-04-22T04:36:16.390Z,44.50
2023-04-22T04:38:43.644Z,42.38
2023-04-22T04:41:10.708Z,46.03
2023-04-22T04:43:37.773Z,41.97
2023-04-22T04:46:16.650Z,44.55
2023-04-22T04:48:43.914Z,43.88
2023-04-22T04:51:11.695Z,39.22
2023-04-22T04:53:44.989Z,40.20
2023-04-22T04:56:11.642Z,40.85
2023-04-22T04:58:38.485Z,34.53
2023-04-22T05:01:12.332Z,39.00
2023-04-22T05:03:40.720Z,39.40
2023-04-22T05:06:08.169Z,43.45
2023-04-22T05:08:37.000Z,38.03
2023-04-22T05:11:08.147Z,36.75
2023-04-22T05:13:35.334Z,34.05
2023-04-22T05:16:02.899Z,38.28
2023-04-22T05:18:29.664Z,37.70
2023-04-22T05:20:59.471Z,38.83
2023-04-22T05:23:26.824Z,37.80
2023-04-22T05:25:56.822Z,37.25
2023-04-22T05:28:24.241Z,39.95
2023-04-22T05:30:54.584Z,40.13
2023-04-22T05:33:21.247Z,35.97
2023-04-22T05:35:48.956Z,39.88
2023-04-22T05:38:15.792Z,36.15
2023-04-22T05:40:42.431Z,39.33
2023-04-22T05:43:15.670Z,39.88
2023-04-22T05:45:47.906Z,38.28
2023-04-22T05:48:18.561Z,39.17
2023-04-22T05:50:56.480Z,39.97
2023-04-22T05:53:23.619Z,41.28
2023-04-22T05:55:50.666Z,43.92
2023-04-22T05:58:18.218Z,43.50
2023-04-22T06:03:36.946Z,37.08
2023-04-22T06:06:04.527Z,35.15
2023-04-22T06:08:31.879Z,36.53
2023-04-22T06:10:58.714Z,40.03
2023-04-22T06:13:28.429Z,37.97
2023-04-22T06:15:55.619Z,47.13
2023-04-22T06:18:22.263Z,51.45
2023-04-22T06:20:50.512Z,42.92
2023-04-22T06:23:18.358Z,40.58
2023-04-22T06:25:45.362Z,39.60
2023-04-22T06:28:11.956Z,33.90
2023-04-22T06:30:39.402Z,34.83
2023-04-22T06:33:06.407Z,34.90
2023-04-22T06:35:33.239Z,42.03
2023-04-22T06:38:00.347Z,36.55
2023-04-22T06:40:32.022Z,29.27
2023-04-22T06:43:06.302Z,30.42
2023-04-22T06:45:50.768Z,29.20
2023-04-22T06:48:24.558Z,26.92
2023-04-22T06:51:11.509Z,26.75
2023-04-22T06:53:38.202Z,25.65
2023-04-22T06:56:05.982Z,25.77
2023-04-22T06:58:33.031Z,25.00
2023-04-22T07:00:59.912Z,25.23
2023-04-22T07:03:27.569Z,25.50
2023-04-22T07:06:01.530Z,25.05
2023-04-22T07:08:30.265Z,24.48
2023-04-22T07:10:57.844Z,24.42
2023-04-22T07:13:42.966Z,22.92
2023-04-22T07:16:10.100Z,22.35
2023-04-22T07:18:36.961Z,24.40
2023-04-22T07:21:03.695Z,23.63
2023-04-22T07:23:30.317Z,28.10
2023-04-22T07:25:57.283Z,19.83
2023-04-22T07:28:24.031Z,16.92
2023-04-22T07:30:52.065Z,20.75
2023-04-22T07:33:19.874Z,16.45
2023-04-22T07:35:47.257Z,15.73
2023-04-22T07:38:14.730Z,17.45
2023-04-22T07:40:41.623Z,18.15
2023-04-22T07:43:08.354Z,15.32
2023-04-22T07:45:38.199Z,19.10
2023-04-22T07:48:05.027Z,13.63
2023-04-22T07:50:32.055Z,12.88
2023-04-22T07:52:58.918Z,13.88
2023-04-22T07:55:25.679Z,14.50
2023-04-22T07:57:52.333Z,12.35
2023-04-22T08:00:19.003Z,13.85
2023-04-22T08:02:46.891Z,13.82
2023-04-22T08:05:13.823Z,12.00
2023-04-22T08:07:40.553Z,14.18
2023-04-22T08:10:07.700Z,12.02
2023-04-22T08:12:34.443Z,13.82
2023-04-22T08:15:01.281Z,10.73
2023-04-22T08:17:28.002Z,12.65
2023-04-22T08:19:54.743Z,10.82
2023-04-22T08:22:21.407Z,10.07
2023-04-22T08:24:47.991Z,11.20
2023-04-22T08:27:14.635Z,12.85
2023-04-22T08:29:41.355Z,11.70
2023-04-22T08:32:08.223Z,13.40
2023-04-22T08:34:34.988Z,19.63
2023-04-22T08:37:02.593Z,10.48
2023-04-22T08:39:29.427Z,13.40
2023-04-22T08:41:56.530Z,13.25
2023-04-22T08:44:23.577Z,11.10
2023-04-22T08:46:51.947Z,11.55
2023-04-22T08:49:19.580Z,12.55
2023-04-22T08:51:46.506Z,11.13
2023-04-22T08:54:13.190Z,11.73
2023-04-22T08:56:42.469Z,12.32
2023-04-22T08:59:11.575Z,11.57
2023-04-22T09:01:42.272Z,11.55
2023-04-22T09:04:15.198Z,9.90
2023-04-22T09:06:42.174Z,12.85
2023-04-22T09:09:09.043Z,11.13
2023-04-22T09:11:37.357Z,13.65
2023-04-22T09:14:07.288Z,13.32
2023-04-22T09:16:34.294Z,10.48
2023-04-22T09:19:01.622Z,13.52
2023-04-22T09:21:29.221Z,10.73
2023-04-22T09:23:56.929Z,10.50
2023-04-22T09:26:24.927Z,10.63
2023-04-22T09:28:51.500Z,12.75
2023-04-22T09:31:18.298Z,10.38
2023-04-22T09:33:50.701Z,10.55
2023-04-22T09:36:21.376Z,9.85
2023-04-22T09:38:58.605Z,10.20
2023-04-22T09:41:32.673Z,12.43
2023-04-22T09:44:01.445Z,11.10
2023-04-22T09:46:30.045Z,9.95
2023-04-22T09:48:58.613Z,10.43
2023-04-22T09:51:25.557Z,9.32
2023-04-22T09:54:05.134Z,10.75
2023-04-22T09:56:52.180Z,10.57
2023-04-22T09:59:23.367Z,10.82
2023-04-22T10:01:53.248Z,13.48
2023-04-22T10:04:24.850Z,11.75
2023-04-22T10:06:52.900Z,8.90
2023-04-22T10:09:22.292Z,12.57
2023-04-22T10:11:51.373Z,11.05
2023-04-22T10:14:18.334Z,9.48
2023-04-22T10:16:47.303Z,9.80
2023-04-22T10:19:21.004Z,9.55
2023-04-22T10:21:50.823Z,8.57
2023-04-22T10:24:19.095Z,7.15
2023-04-22T10:26:59.086Z,9.13
2023-04-22T10:29:27.643Z,10.65
2023-04-22T10:31:59.323Z,9.13
2023-04-22T10:34:26.045Z,8.75
2023-04-22T10:37:12.490Z,8.60
2023-04-22T10:39:42.723Z,9.88
2023-04-22T10:42:12.881Z,8.75
2023-04-22T10:44:45.728Z,7.93
2023-04-22T10:47:12.411Z,9.45
2023-04-22T10:49:39.272Z,9.10
2023-04-22T10:52:08.004Z,10.10
2023-04-22T10:54:37.864Z,11.80
2023-04-22T10:57:14.762Z,10.68
2023-04-22T10:59:45.818Z,11.10
2023-04-22T11:02:15.266Z,11.52
2023-04-22T11:04:42.836Z,10.23
2023-04-22T11:07:20.554Z,11.80
2023-04-22T11:09:51.328Z,12.25
2023-04-22T11:12:39.107Z,12.48
2023-04-22T11:15:07.151Z,11.60
2023-04-22T11:17:34.568Z,11.05
2023-04-22T11:20:02.141Z,13.25
2023-04-22T11:22:35.974Z,11.50
2023-04-22T11:25:06.606Z,16.75
2023-04-22T11:27:34.064Z,12.13
2023-04-22T11:30:04.840Z,12.25
2023-04-22T11:32:32.230Z,13.05
2023-04-22T11:35:12.961Z,17.60
2023-04-22T11:38:04.049Z,13.98
2023-04-22T11:40:37.831Z,19.08
2023-04-22T11:43:08.161Z,15.18
2023-04-22T11:45:38.689Z,16.45
2023-04-22T11:48:08.379Z,13.98
2023-04-22T11:50:40.619Z,20.35
2023-04-22T11:53:21.536Z,14.60
2023-04-22T11:56:12.633Z,15.57
2023-04-22T11:58:41.887Z,17.08
2023-04-22T12:01:12.837Z,16.67
2023-04-22T12:03:39.690Z,16.75
2023-04-22T12:06:06.973Z,16.40
2023-04-22T12:08:37.057Z,18.58
2023-04-22T12:11:08.857Z,15.70
2023-04-22T12:13:38.851Z,15.88
2023-04-22T12:16:18.085Z,16.83
2023-04-22T12:18:51.675Z,18.45
2023-04-22T12:23:58.508Z,18.80
2023-04-22T12:26:27.548Z,19.00
2023-04-22T12:28:56.508Z,15.80
2023-04-22T12:31:23.142Z,20.35
2023-04-22T12:33:50.349Z,20.75
2023-04-22T12:36:18.469Z,15.55
2023-04-22T12:38:45.084Z,17.88
2023-04-22T12:41:11.708Z,20.83
2023-04-22T12:43:39.522Z,19.55
2023-04-22T12:46:08.238Z,16.55
2023-04-22T12:48:40.171Z,22.92
2023-04-22T12:51:07.279Z,19.90
2023-04-22T12:53:34.377Z,18.63
2023-04-22T12:56:01.187Z,16.33
2023-04-22T12:58:28.572Z,18.60
2023-04-22T13:00:56.900Z,17.15
2023-04-22T13:03:23.725Z,17.52
2023-04-22T13:05:51.191Z,16.83
2023-04-22T13:08:18.046Z,14.43
2023-04-22T13:10:44.744Z,20.15
2023-04-22T13:15:41.453Z,17.58
2023-04-22T13:18:10.590Z,14.45
2023-04-22T13:20:38.423Z,21.73
2023-04-22T13:23:05.228Z,36.05
2023-04-22T13:25:32.029Z,42.97
2023-04-22T13:27:58.616Z,19.02
2023-04-22T13:30:25.354Z,17.67
2023-04-22T13:32:52.114Z,14.63
2023-04-22T13:35:19.204Z,23.95
2023-04-22T13:37:46.990Z,28.67
2023-04-22T13:40:13.789Z,20.83
2023-04-22T13:42:42.660Z,24.73
2023-04-22T13:45:09.901Z,19.67
2023-04-22T13:47:37.205Z,17.30
2023-04-22T13:50:05.996Z,19.08
2023-04-22T13:52:32.728Z,21.10
2023-04-22T13:54:59.528Z,16.15
2023-04-22T13:57:27.904Z,14.88
2023-04-22T13:59:54.661Z,14.52
2023-04-22T14:02:24.164Z,16.02
2023-04-22T14:04:51.226Z,15.27
2023-04-22T14:07:18.558Z,13.98
2023-04-22T14:09:45.442Z,28.52
2023-04-22T14:12:13.378Z,18.52
2023-04-22T14:14:40.199Z,37.70
2023-04-22T14:17:08.956Z,18.73
2023-04-22T14:19:39.406Z,19.30
2023-04-22T14:22:06.807Z,17.98
2023-04-22T14:24:34.040Z,20.75
2023-04-22T14:27:03.536Z,21.83
2023-04-22T14:29:32.089Z,21.55
2023-04-22T14:31:59.617Z,20.25
2023-04-22T14:34:27.455Z,18.65
2023-04-22T14:36:54.559Z,19.08
2023-04-22T14:39:21.547Z,28.38
2023-04-22T14:41:48.395Z,22.48
2023-04-22T14:44:15.157Z,25.08
2023-04-22T14:46:45.935Z,23.52
2023-04-22T14:49:12.691Z,49.33
2023-04-22T14:51:46.137Z,24.20
2023-04-22T14:54:17.370Z,22.77
2023-04-22T14:56:44.734Z,25.13
2023-04-22T14:59:11.292Z,30.80
2023-04-22T15:01:40.963Z,25.65
2023-04-22T15:04:12.687Z,26.05
2023-04-22T15:06:39.576Z,25.77
2023-04-22T15:09:07.160Z,23.48
2023-04-22T15:11:33.730Z,24.73
2023-04-22T15:14:00.249Z,25.83
2023-04-22T15:16:27.382Z,29.02
2023-04-22T15:18:54.990Z,23.33
2023-04-22T15:21:21.631Z,26.13
2023-04-22T15:23:49.685Z,29.65
2023-04-22T15:26:16.524Z,32.53
2023-04-22T15:28:43.483Z,30.55
2023-04-22T15:31:10.245Z,34.33
2023-04-22T15:33:38.341Z,35.40
2023-04-22T15:36:09.198Z,34.35
2023-04-22T15:38:38.469Z,28.20
2023-04-22T15:41:05.013Z,32.30
2023-04-22T15:43:31.884Z,70.18
2023-04-22T15:45:59.115Z,26.95
2023-04-22T15:48:25.883Z,27.35
2023-04-22T15:50:52.652Z,25.10
2023-04-22T15:53:19.351Z,26.50
2023-04-22T15:55:47.430Z,31.80
2023-04-22T15:58:15.296Z,30.90
2023-04-22T16:00:44.963Z,35.85
2023-04-22T16:03:12.200Z,30.30
2023-04-22T16:05:39.000Z,35.55
2023-04-22T16:08:05.730Z,34.35
2023-04-22T16:10:32.390Z,33.42
2023-04-22T16:13:01.063Z,36.65
2023-04-22T16:15:28.164Z,34.80
2023-04-22T16:17:55.758Z,34.65
2023-04-22T16:20:25.454Z,33.38
2023-04-22T16:22:52.024Z,34.78
2023-04-22T16:25:19.003Z,35.35
2023-04-22T16:27:46.129Z,40.13
2023-04-22T16:30:16.086Z,40.50
2023-04-22T16:32:43.000Z,38.92
2023-04-22T16:35:10.512Z,43.08
2023-04-22T16:37:37.978Z,42.10
2023-04-22T16:40:06.337Z,39.97
2023-04-22T16:42:35.895Z,43.30
2023-04-22T16:45:02.798Z,36.63
2023-04-22T16:47:29.460Z,40.88
2023-04-22T16:49:56.152Z,49.80
2023-04-22T16:52:22.930Z,38.55
2023-04-22T16:54:51.434Z,38.15
2023-04-22T16:57:18.227Z,36.47
2023-04-22T16:59:47.598Z,36.90
2023-04-22T17:02:14.563Z,41.15
2023-04-22T17:04:41.412Z,41.83
2023-04-22T17:07:09.710Z,42.47
2023-04-22T17:09:36.395Z,36.58
2023-04-22T17:12:03.268Z,37.05
2023-04-22T17:14:34.324Z,36.42
2023-04-22T17:17:01.198Z,33.40
2023-04-22T17:19:27.965Z,36.53
2023-04-22T17:21:57.105Z,37.35
2023-04-22T17:24:24.842Z,33.33
2023-04-22T17:26:51.614Z,37.53
2023-04-22T17:29:23.478Z,39.60
2023-04-22T17:31:50.743Z,35.05
2023-04-22T17:34:18.495Z,32.17
2023-04-22T17:36:46.090Z,48.35
2023-04-22T17:39:13.402Z,29.63
2023-04-22T17:41:40.429Z,28.17
2023-04-22T17:44:08.889Z,36.33
2023-04-22T17:46:36.086Z,32.05
2023-04-22T17:49:03.419Z,29.45
2023-04-22T17:51:37.467Z,32.78
2023-04-22T17:54:05.438Z,34.50
2023-04-22T17:56:34.443Z,35.65
2023-04-22T17:59:01.273Z,33.28
2023-04-22T18:01:30.102Z,31.95
2023-04-22T18:04:02.222Z,30.70
2023-04-22T18:06:30.694Z,35.33
2023-04-22T18:08:57.669Z,36.83
2023-04-22T18:11:25.900Z,34.67
2023-04-22T18:13:52.600Z,36.55
2023-04-22T18:16:22.075Z,37.53
2023-04-22T18:18:49.018Z,39.53
2023-04-22T18:21:16.581Z,36.25
2023-04-22T18:23:43.306Z,37.38
2023-04-22T18:26:12.562Z,39.22
2023-04-22T18:28:43.659Z,37.78
2023-04-22T18:31:10.478Z,38.72
2023-04-22T18:33:37.455Z,37.78
2023-04-22T18:36:04.429Z,39.78
2023-04-22T18:38:31.201Z,42.13
2023-04-22T18:40:57.841Z,35.88
2023-04-22T18:43:24.526Z,43.13
2023-04-22T18:45:51.196Z,39.50
2023-04-22T18:48:18.837Z,39.17
2023-04-22T18:50:45.717Z,44.15
2023-04-22T18:53:12.594Z,45.10
2023-04-22T18:55:40.536Z,46.78
2023-04-22T18:58:09.210Z,48.25
2023-04-22T19:00:36.030Z,43.95
2023-04-22T19:03:02.803Z,353.60
2023-04-22T19:05:29.606Z,58.25
2023-04-22T19:07:56.511Z,47.90
2023-04-22T19:10:23.117Z,41.22
2023-04-22T19:12:49.865Z,42.08
2023-04-22T19:15:19.325Z,42.00
2023-04-22T19:17:46.352Z,44.58
2023-04-22T19:20:13.182Z,44.78
2023-04-22T19:22:39.894Z,46.03
2023-04-22T19:25:09.316Z,47.92
2023-04-22T19:27:36.018Z,45.25
2023-04-22T19:30:04.285Z,48.70
2023-04-22T19:32:31.001Z,47.92
2023-04-22T19:34:58.157Z,49.45
2023-04-22T19:37:25.987Z,52.15
2023-04-22T19:39:52.651Z,55.67
2023-04-22T19:42:20.931Z,60.92
2023-04-22T19:44:48.348Z,62.35
2023-04-22T19:47:15.676Z,62.03
2023-04-22T19:49:43.200Z,64.78
2023-04-22T19:52:11.729Z,60.78
2023-04-22T19:54:41.383Z,61.85
2023-04-22T19:57:09.323Z,61.70
2023-04-22T19:59:36.187Z,62.60
2023-04-22T20:02:03.516Z,61.90
2023-04-22T20:04:30.680Z,68.50
2023-04-22T20:06:59.018Z,64.70
2023-04-22T20:09:27.451Z,68.72
2023-04-22T20:11:57.806Z,71.07
2023-04-22T20:14:26.621Z,71.97
2023-04-22T20:16:54.288Z,74.25
2023-04-22T20:19:21.002Z,84.72
2023-04-22T20:21:50.253Z,96.93
2023-04-22T20:24:20.233Z,95.70
2023-04-22T20:26:47.768Z,107.30
2023-04-22T20:29:16.289Z,160.80
2023-04-22T20:31:43.397Z,141.98
2023-04-22T20:34:11.509Z,149.98
2023-04-22T20:36:38.951Z,143.48
2023-04-22T20:39:06.237Z,120.35
2023-04-22T20:41:39.157Z,104.20
2023-04-22T20:44:06.463Z,98.38
2023-04-22T20:46:33.724Z,93.93
2023-04-22T20:49:01.142Z,90.50
2023-04-22T20:51:32.038Z,82.40
2023-04-22T20:54:14.668Z,94.57
2023-04-22T20:56:53.024Z,94.35
2023-04-22T20:59:19.778Z,94.63
2023-04-22T21:01:47.612Z,98.32
2023-04-22T21:04:14.732Z,107.47
2023-04-22T21:06:45.333Z,104.22
2023-04-22T21:09:13.160Z,100.28
2023-04-22T21:11:40.178Z,111.35
2023-04-22T21:14:07.920Z,117.38
2023-04-22T21:16:39.492Z,102.60
2023-04-22T21:19:09.868Z,107.90
2023-04-22T21:21:37.363Z,118.82
2023-04-22T21:24:08.117Z,119.45
2023-04-22T21:26:38.092Z,115.45
2023-04-22T21:29:05.112Z,115.68
2023-04-22T21:31:34.104Z,122.40
2023-04-22T21:34:04.571Z,112.82
2023-04-22T21:36:31.803Z,119.63
2023-04-22T21:39:00.076Z,122.57
2023-04-22T21:41:26.926Z,127.38
2023-04-22T21:43:53.735Z,119.22
2023-04-22T21:46:22.114Z,119.15
2023-04-22T21:48:48.748Z,116.35
2023-04-22T21:51:15.707Z,123.03
2023-04-22T21:53:42.353Z,114.30
2023-04-22T21:56:09.089Z,117.05
2023-04-22T21:58:35.957Z,124.78
2023-04-22T22:01:02.880Z,114.72
2023-04-22T22:03:29.680Z,116.47
2023-04-22T22:05:56.873Z,108.65
2023-04-22T22:08:23.542Z,118.28
2023-04-22T22:10:52.020Z,120.55
2023-04-22T22:13:18.717Z,121.55
2023-04-22T22:15:45.518Z,116.35
2023-04-22T22:18:12.221Z,115.93
2023-04-22T22:20:39.488Z,108.53
2023-04-22T22:23:06.223Z,109.80
2023-04-22T22:25:32.931Z,100.90
2023-04-22T22:28:00.008Z,107.90
2023-04-22T22:30:26.766Z,105.40
2023-04-22T22:32:53.348Z,106.90
2023-04-22T22:35:20.930Z,104.55
2023-04-22T22:37:47.679Z,110.78
2023-04-22T22:40:14.645Z,98.93
2023-04-22T22:42:41.261Z,109.80
2023-04-22T22:45:08.963Z,97.45
2023-04-22T22:47:39.749Z,98.97
2023-04-22T22:50:08.756Z,97.93
2023-04-22T22:52:38.914Z,105.03
2023-04-22T22:55:06.274Z,101.35
2023-04-22T22:57:38.637Z,92.68
2023-04-22T23:00:08.472Z,93.28
2023-04-22T23:02:35.644Z,92.10
2023-04-22T23:05:04.549Z,96.20
2023-04-22T23:07:31.160Z,102.30
2023-04-22T23:09:57.877Z,89.28
2023-04-22T23:12:24.916Z,87.75
2023-04-22T23:14:51.545Z,91.97
2023-04-22T23:17:18.463Z,88.72
2023-04-22T23:19:45.684Z,84.70
2023-04-22T23:22:14.162Z,87.78
2023-04-22T23:24:41.816Z,77.80
2023-04-22T23:27:08.928Z,86.03
2023-04-22T23:29:36.803Z,78.78
2023-04-22T23:32:05.449Z,77.78
2023-04-22T23:34:33.667Z,79.25
2023-04-22T23:37:05.495Z,82.88
2023-04-22T23:39:32.588Z,80.50
2023-04-22T23:41:59.221Z,80.05
2023-04-22T23:44:25.982Z,75.20
2023-04-22T23:46:52.682Z,76.07
2023-04-22T23:49:20.151Z,75.53
2023-04-22T23:51:47.197Z,73.40
2023-04-22T23:54:15.976Z,73.20
2023-04-22T23:56:43.370Z,72.22
2023-04-22T23:59:11.806Z,70.45
